sensor_id;sensor_type;location;lat;lon;timestamp;pressure;altitude;pressure_sealevel;temperature;humidity
31595;BME280;18200;48.726;8.892;2024-03-17T00:02:37;97451.66;;;18.63;41.11
31595;BME280;18200;48.726;8.892;2024-03-17T00:06:38;97444.63;;;18.66;40.67
31595;BME280;18200;48.726;8.892;2024-03-17T00:10:38;97446.94;;;18.21;40.66
31595;BME280;18200;48.726;8.892;2024-03-17T00:14:39;97443.09;;;18.65;41.40
31595;BME280;18200;48.726;8.892;2024-03-17T00:18:43;97440.72;;;18.84;40.64
31595;BME280;18200;48.726;8.892;2024-03-17T00:22:43;97444.22;;;18.92;40.47
31595;BME280;18200;48.726;8.892;2024-03-17T00:26:43;97446.59;;;18.76;40.24
31595;BME280;18200;48.726;8.892;2024-03-17T00:30:45;97447.38;;;18.51;39.78
31595;BME280;18200;48.726;8.892;2024-03-17T00:34:46;97436.09;;;18.60;40.61
31595;BME280;18200;48.726;8.892;2024-03-17T00:38:47;97436.06;;;18.07;41.36
31595;BME280;18200;48.726;8.892;2024-03-17T00:42:47;97441.13;;;18.05;41.75
31595;BME280;18200;48.726;8.892;2024-03-17T00:46:48;97424.41;;;17.82;41.45
31595;BME280;18200;48.726;8.892;2024-03-17T00:50:57;97425.97;;;18.04;42.00
31595;BME280;18200;48.726;8.892;2024-03-17T00:54:58;97426.00;;;18.18;41.60
31595;BME280;18200;48.726;8.892;2024-03-17T00:58:59;97422.84;;;18.02;41.92
31595;BME280;18200;48.726;8.892;2024-03-17T01:02:59;97425.19;;;18.00;42.05
31595;BME280;18200;48.726;8.892;2024-03-17T01:07:00;97421.28;;;17.80;41.97
31595;BME280;18200;48.726;8.892;2024-03-17T01:11:00;97416.66;;;18.09;41.87
31595;BME280;18200;48.726;8.892;2024-03-17T01:15:04;97422.03;;;17.63;42.11
31595;BME280;18200;48.726;8.892;2024-03-17T01:19:05;97420.00;;;17.49;41.77
31595;BME280;18200;48.726;8.892;2024-03-17T01:23:05;97418.81;;;17.43;41.67
31595;BME280;18200;48.726;8.892;2024-03-17T01:27:06;97411.84;;;17.46;41.55
31595;BME280;18200;48.726;8.892;2024-03-17T01:31:06;97406.50;;;17.70;41.81
31595;BME280;18200;48.726;8.892;2024-03-17T01:35:07;97401.75;;;17.43;41.68
31595;BME280;18200;48.726;8.892;2024-03-17T01:39:08;97400.31;;;17.84;41.73
31595;BME280;18200;48.726;8.892;2024-03-17T01:43:10;97389.44;;;17.91;41.17
31595;BME280;18200;48.726;8.892;2024-03-17T01:47:11;97382.47;;;17.97;41.25
31595;BME280;18200;48.726;8.892;2024-03-17T01:51:15;97389.41;;;17.66;40.73
31595;BME280;18200;48.726;8.892;2024-03-17T01:55:16;97372.13;;;17.06;42.14
31595;BME280;18200;48.726;8.892;2024-03-17T01:59:17;97360.66;;;17.55;42.71
31595;BME280;18200;48.726;8.892;2024-03-17T02:03:18;97357.28;;;16.79;42.66
31595;BME280;18200;48.726;8.892;2024-03-17T02:07:18;97372.06;;;15.80;44.85
31595;BME280;18200;48.726;8.892;2024-03-17T02:11:26;97366.56;;;16.74;44.33
31595;BME280;18200;48.726;8.892;2024-03-17T02:15:26;97360.13;;;17.11;42.87
31595;BME280;18200;48.726;8.892;2024-03-17T02:19:28;97353.47;;;16.97;43.32
31595;BME280;18200;48.726;8.892;2024-03-17T02:23:28;97350.47;;;17.24;43.36
31595;BME280;18200;48.726;8.892;2024-03-17T02:27:29;97346.53;;;17.03;43.44
31595;BME280;18200;48.726;8.892;2024-03-17T02:31:29;97336.13;;;17.34;42.71
31595;BME280;18200;48.726;8.892;2024-03-17T02:35:30;97327.22;;;17.40;43.27
31595;BME280;18200;48.726;8.892;2024-03-17T02:39:31;97335.75;;;17.25;43.19
31595;BME280;18200;48.726;8.892;2024-03-17T02:43:34;97326.84;;;17.35;43.00
31595;BME280;18200;48.726;8.892;2024-03-17T02:47:38;97335.63;;;16.89;42.66
31595;BME280;18200;48.726;8.892;2024-03-17T02:51:38;97318.75;;;17.66;42.76
31595;BME280;18200;48.726;8.892;2024-03-17T02:55:39;97326.03;;;17.24;42.11
31595;BME280;18200;48.726;8.892;2024-03-17T02:59:39;97331.13;;;17.39;42.59
31595;BME280;18200;48.726;8.892;2024-03-17T03:03:40;97329.25;;;17.61;41.77
31595;BME280;18200;48.726;8.892;2024-03-17T03:07:40;97318.00;;;17.80;41.86
31595;BME280;18200;48.726;8.892;2024-03-17T03:11:41;97321.88;;;18.00;41.27
31595;BME280;18200;48.726;8.892;2024-03-17T03:15:41;97325.38;;;17.83;41.87
31595;BME280;18200;48.726;8.892;2024-03-17T03:19:42;97325.63;;;17.22;41.67
31595;BME280;18200;48.726;8.892;2024-03-17T03:23:44;97315.28;;;17.59;42.21
31595;BME280;18200;48.726;8.892;2024-03-17T03:27:44;97319.16;;;17.75;40.85
31595;BME280;18200;48.726;8.892;2024-03-17T03:31:45;97325.69;;;17.43;41.46
31595;BME280;18200;48.726;8.892;2024-03-17T03:35:46;97326.06;;;17.48;41.92
31595;BME280;18200;48.726;8.892;2024-03-17T03:39:46;97320.25;;;17.29;42.55
31595;BME280;18200;48.726;8.892;2024-03-17T03:43:46;97322.56;;;17.44;42.32
31595;BME280;18200;48.726;8.892;2024-03-17T03:47:47;97318.75;;;17.56;42.04
31595;BME280;18200;48.726;8.892;2024-03-17T03:51:48;97319.16;;;17.65;42.22
31595;BME280;18200;48.726;8.892;2024-03-17T03:55:48;97308.63;;;17.46;42.11
31595;BME280;18200;48.726;8.892;2024-03-17T03:59:49;97311.00;;;17.65;42.14
31595;BME280;18200;48.726;8.892;2024-03-17T04:03:49;97307.91;;;17.73;42.03
31595;BME280;18200;48.726;8.892;2024-03-17T04:07:50;97303.16;;;17.32;41.42
31595;BME280;18200;48.726;8.892;2024-03-17T04:11:50;97306.28;;;17.27;42.52
31595;BME280;18200;48.726;8.892;2024-03-17T04:15:50;97314.09;;;17.70;42.33
31595;BME280;18200;48.726;8.892;2024-03-17T04:19:56;97309.44;;;17.64;41.96
31595;BME280;18200;48.726;8.892;2024-03-17T04:23:57;97309.44;;;17.64;41.49
31595;BME280;18200;48.726;8.892;2024-03-17T04:27:57;97312.38;;;16.88;42.50
31595;BME280;18200;48.726;8.892;2024-03-17T04:31:58;97307.03;;;17.38;41.67
31595;BME280;18200;48.726;8.892;2024-03-17T04:35:59;97309.75;;;17.38;42.02
31595;BME280;18200;48.726;8.892;2024-03-17T04:39:59;97314.41;;;17.34;42.16
31595;BME280;18200;48.726;8.892;2024-03-17T04:44:00;97304.75;;;17.40;42.26
31595;BME280;18200;48.726;8.892;2024-03-17T04:48:00;97313.28;;;17.45;41.42
31595;BME280;18200;48.726;8.892;2024-03-17T04:52:01;97312.81;;;17.19;41.52
31595;BME280;18200;48.726;8.892;2024-03-17T04:56:03;97318.69;;;17.38;41.89
31595;BME280;18200;48.726;8.892;2024-03-17T05:00:05;97314.81;;;17.43;41.52
31595;BME280;18200;48.726;8.892;2024-03-17T05:04:07;97315.59;;;17.40;41.35
31595;BME280;18200;48.726;8.892;2024-03-17T05:08:07;97318.97;;;16.94;41.50
31595;BME280;18200;48.726;8.892;2024-03-17T05:12:08;97322.91;;;17.15;42.10
31595;BME280;18200;48.726;8.892;2024-03-17T05:16:08;97321.78;;;17.37;41.46
31595;BME280;18200;48.726;8.892;2024-03-17T05:20:09;97319.50;;;17.46;41.55
31595;BME280;18200;48.726;8.892;2024-03-17T05:24:10;97307.03;;;17.38;41.93
31595;BME280;18200;48.726;8.892;2024-03-17T05:28:12;97307.00;;;17.17;42.43
31595;BME280;18200;48.726;8.892;2024-03-17T05:32:12;97302.75;;;17.16;42.22
31595;BME280;18200;48.726;8.892;2024-03-17T05:36:13;97309.69;;;16.99;41.74
31595;BME280;18200;48.726;8.892;2024-03-17T05:40:14;97310.41;;;16.82;41.94
31595;BME280;18200;48.726;8.892;2024-03-17T05:44:15;97318.53;;;16.85;42.46
31595;BME280;18200;48.726;8.892;2024-03-17T05:48:15;97312.38;;;16.95;42.66
31595;BME280;18200;48.726;8.892;2024-03-17T05:52:16;97315.47;;;16.90;42.29
31595;BME280;18200;48.726;8.892;2024-03-17T05:56:16;97305.44;;;17.05;42.34
31595;BME280;18200;48.726;8.892;2024-03-17T06:00:17;97314.50;;;16.55;42.06
31595;BME280;18200;48.726;8.892;2024-03-17T06:04:17;97312.84;;;16.36;43.06
31595;BME280;18200;48.726;8.892;2024-03-17T06:08:17;97314.25;;;16.77;42.86
31595;BME280;18200;48.726;8.892;2024-03-17T06:12:18;97309.97;;;16.76;42.59
31595;BME280;18200;48.726;8.892;2024-03-17T06:16:18;97310.44;;;16.99;42.94
31595;BME280;18200;48.726;8.892;2024-03-17T06:20:21;97303.84;;;16.93;43.41
31595;BME280;18200;48.726;8.892;2024-03-17T06:24:21;97301.50;;;16.92;42.65
31595;BME280;18200;48.726;8.892;2024-03-17T06:28:22;97302.72;;;17.08;43.00
31595;BME280;18200;48.726;8.892;2024-03-17T06:32:27;97304.66;;;17.08;42.00
31595;BME280;18200;48.726;8.892;2024-03-17T06:36:28;97303.91;;;17.22;42.50
31595;BME280;18200;48.726;8.892;2024-03-17T06:40:29;97310.84;;;17.01;43.16
31595;BME280;18200;48.726;8.892;2024-03-17T06:44:30;97307.03;;;17.24;43.53
31595;BME280;18200;48.726;8.892;2024-03-17T06:48:33;97317.97;;;17.66;42.51
31595;BME280;18200;48.726;8.892;2024-03-17T06:52:34;97306.34;;;17.83;41.96
31595;BME280;18200;48.726;8.892;2024-03-17T06:56:35;97298.19;;;17.79;42.47
31595;BME280;18200;48.726;8.892;2024-03-17T07:00:39;97297.78;;;18.02;42.09
31595;BME280;18200;48.726;8.892;2024-03-17T07:04:48;97299.31;;;18.17;41.91
31595;BME280;18200;48.726;8.892;2024-03-17T07:09:03;97302.38;;;17.28;43.31
31595;BME280;18200;48.726;8.892;2024-03-17T07:13:31;97310.88;;;17.19;44.28
31595;BME280;18200;48.726;8.892;2024-03-17T07:22:32;97291.53;;;18.30;42.24
31595;BME280;18200;48.726;8.892;2024-03-17T07:26:33;97300.09;;;18.21;42.18
31595;BME280;18200;48.726;8.892;2024-03-17T07:30:35;97300.03;;;18.60;42.09
31595;BME280;18200;48.726;8.892;2024-03-17T07:34:39;97302.25;;;18.86;42.23
31595;BME280;18200;48.726;8.892;2024-03-17T07:54:05;97279.00;;;20.36;39.55
31595;BME280;18200;48.726;8.892;2024-03-17T07:58:08;97288.97;;;20.08;40.65
31595;BME280;18200;48.726;8.892;2024-03-17T08:02:10;97300.19;;;20.18;41.88
31595;BME280;18200;48.726;8.892;2024-03-17T08:06:11;97290.78;;;20.63;40.64
31595;BME280;18200;48.726;8.892;2024-03-17T08:10:12;97294.91;;;19.52;42.77
31595;BME280;18200;48.726;8.892;2024-03-17T08:14:14;97291.41;;;20.40;41.11
31595;BME280;18200;48.726;8.892;2024-03-17T08:18:16;97298.19;;;20.29;41.44
31595;BME280;18200;48.726;8.892;2024-03-17T08:22:16;97287.09;;;20.80;40.91
31595;BME280;18200;48.726;8.892;2024-03-17T08:26:17;97274.75;;;21.29;39.98
31595;BME280;18200;48.726;8.892;2024-03-17T08:30:18;97280.41;;;21.15;41.21
31595;BME280;18200;48.726;8.892;2024-03-17T08:34:19;97269.88;;;21.67;39.62
31595;BME280;18200;48.726;8.892;2024-03-17T08:38:20;97269.44;;;21.95;39.07
31595;BME280;18200;48.726;8.892;2024-03-17T08:42:24;97265.63;;;22.74;38.83
31595;BME280;18200;48.726;8.892;2024-03-17T08:46:25;97266.72;;;22.57;38.51
31595;BME280;18200;48.726;8.892;2024-03-17T08:50:26;97263.28;;;21.87;39.54
31595;BME280;18200;48.726;8.892;2024-03-17T08:54:27;97258.50;;;21.18;40.43
31595;BME280;18200;48.726;8.892;2024-03-17T08:58:28;97253.59;;;22.49;38.02
31595;BME280;18200;48.726;8.892;2024-03-17T09:02:29;97263.19;;;21.94;38.79
31595;BME280;18200;48.726;8.892;2024-03-17T09:06:30;97251.09;;;22.15;38.92
31595;BME280;18200;48.726;8.892;2024-03-17T09:14:35;97258.41;;;22.41;37.28
31595;BME280;18200;48.726;8.892;2024-03-17T09:18:36;97256.53;;;21.95;38.11
31595;BME280;18200;48.726;8.892;2024-03-17T09:22:38;97258.34;;;23.03;36.10
31595;BME280;18200;48.726;8.892;2024-03-17T09:26:39;97256.75;;;23.22;35.43
31595;BME280;18200;48.726;8.892;2024-03-17T09:30:46;97260.16;;;23.62;34.94
31595;BME280;18200;48.726;8.892;2024-03-17T09:34:47;97252.19;;;23.83;32.71
31595;BME280;18200;48.726;8.892;2024-03-17T09:38:50;97256.56;;;23.97;32.69
31595;BME280;18200;48.726;8.892;2024-03-17T09:42:51;97252.28;;;23.80;32.94
31595;BME280;18200;48.726;8.892;2024-03-17T09:46:51;97258.06;;;24.30;32.11
31595;BME280;18200;48.726;8.892;2024-03-17T09:55:16;97254.53;;;23.85;32.85
31595;BME280;18200;48.726;8.892;2024-03-17T09:59:17;97249.59;;;22.92;32.98
31595;BME280;18200;48.726;8.892;2024-03-17T10:07:44;97234.84;;;24.47;31.45
31595;BME280;18200;48.726;8.892;2024-03-17T10:11:45;97247.22;;;25.85;28.41
31595;BME280;18200;48.726;8.892;2024-03-17T10:15:48;97246.63;;;24.60;30.40
31595;BME280;18200;48.726;8.892;2024-03-17T10:19:50;97239.72;;;24.85;30.32
31595;BME280;18200;48.726;8.892;2024-03-17T10:24:08;97240.03;;;24.87;31.14
31595;BME280;18200;48.726;8.892;2024-03-17T10:28:13;97241.56;;;24.88;30.60
31595;BME280;18200;48.726;8.892;2024-03-17T10:32:15;97243.72;;;25.59;29.96
31595;BME280;18200;48.726;8.892;2024-03-17T10:36:18;97250.19;;;25.15;30.26
31595;BME280;18200;48.726;8.892;2024-03-17T10:40:19;97260.63;;;23.25;33.11
31595;BME280;18200;48.726;8.892;2024-03-17T10:44:19;97252.88;;;24.48;30.66
31595;BME280;18200;48.726;8.892;2024-03-17T10:48:20;97253.34;;;24.88;31.16
31595;BME280;18200;48.726;8.892;2024-03-17T10:52:24;97251.31;;;25.55;29.46
31595;BME280;18200;48.726;8.892;2024-03-17T10:56:29;97248.00;;;25.35;29.92
31595;BME280;18200;48.726;8.892;2024-03-17T11:00:29;97250.88;;;24.20;31.35
31595;BME280;18200;48.726;8.892;2024-03-17T11:04:31;97232.53;;;25.88;30.17
31595;BME280;18200;48.726;8.892;2024-03-17T11:08:33;97246.72;;;23.15;33.39
31595;BME280;18200;48.726;8.892;2024-03-17T11:12:41;97248.09;;;23.75;31.98
31595;BME280;18200;48.726;8.892;2024-03-17T11:16:45;97246.50;;;24.23;31.59
31595;BME280;18200;48.726;8.892;2024-03-17T11:21:06;97231.69;;;23.88;31.77
31595;BME280;18200;48.726;8.892;2024-03-17T11:25:37;97219.38;;;24.95;30.06
31595;BME280;18200;48.726;8.892;2024-03-17T11:29:37;97231.84;;;24.13;31.05
31595;BME280;18200;48.726;8.892;2024-03-17T11:37:43;97212.22;;;24.97;29.47
31595;BME280;18200;48.726;8.892;2024-03-17T11:41:44;97210.13;;;25.39;29.34
31595;BME280;18200;48.726;8.892;2024-03-17T11:45:47;97208.66;;;25.85;28.66
31595;BME280;18200;48.726;8.892;2024-03-17T11:49:54;97203.88;;;26.10;28.48
31595;BME280;18200;48.726;8.892;2024-03-17T11:53:59;97205.19;;;26.62;27.27
31595;BME280;18200;48.726;8.892;2024-03-17T11:57:59;97203.38;;;25.78;28.33
31595;BME280;18200;48.726;8.892;2024-03-17T12:02:00;97200.69;;;25.15;28.49
31595;BME280;18200;48.726;8.892;2024-03-17T12:06:02;97198.22;;;26.14;28.21
31595;BME280;18200;48.726;8.892;2024-03-17T12:10:10;97197.81;;;25.06;29.33
31595;BME280;18200;48.726;8.892;2024-03-17T12:14:20;97190.56;;;25.12;29.35
31595;BME280;18200;48.726;8.892;2024-03-17T12:18:20;97195.75;;;24.68;29.82
31595;BME280;18200;48.726;8.892;2024-03-17T12:22:23;97186.06;;;24.93;30.43
31595;BME280;18200;48.726;8.892;2024-03-17T12:26:24;97180.47;;;24.55;30.08
31595;BME280;18200;48.726;8.892;2024-03-17T12:30:25;97175.25;;;24.98;29.20
31595;BME280;18200;48.726;8.892;2024-03-17T12:34:27;97171.66;;;24.89;29.12
31595;BME280;18200;48.726;8.892;2024-03-17T12:38:27;97165.69;;;26.22;28.01
31595;BME280;18200;48.726;8.892;2024-03-17T12:42:28;97162.38;;;26.27;27.90
31595;BME280;18200;48.726;8.892;2024-03-17T12:46:29;97153.13;;;26.21;28.20
31595;BME280;18200;48.726;8.892;2024-03-17T12:50:29;97140.75;;;26.99;26.77
31595;BME280;18200;48.726;8.892;2024-03-17T12:54:30;97151.84;;;25.44;29.33
31595;BME280;18200;48.726;8.892;2024-03-17T12:58:30;97150.63;;;23.23;31.90
31595;BME280;18200;48.726;8.892;2024-03-17T13:02:49;97140.38;;;24.57;30.34
31595;BME280;18200;48.726;8.892;2024-03-17T13:06:50;97148.44;;;24.23;30.33
31595;BME280;18200;48.726;8.892;2024-03-17T13:10:50;97138.47;;;25.68;28.91
31595;BME280;18200;48.726;8.892;2024-03-17T13:14:50;97138.00;;;24.85;29.65
31595;BME280;18200;48.726;8.892;2024-03-17T13:18:51;97134.03;;;24.86;30.10
31595;BME280;18200;48.726;8.892;2024-03-17T13:22:51;97135.03;;;25.76;29.65
31595;BME280;18200;48.726;8.892;2024-03-17T13:26:52;97131.03;;;24.55;31.03
31595;BME280;18200;48.726;8.892;2024-03-17T13:30:55;97128.41;;;26.30;28.81
31595;BME280;18200;48.726;8.892;2024-03-17T13:34:56;97125.16;;;26.74;27.54
31595;BME280;18200;48.726;8.892;2024-03-17T13:38:56;97109.81;;;28.16;25.07
31595;BME280;18200;48.726;8.892;2024-03-17T13:42:56;97105.22;;;29.15;25.94
31595;BME280;18200;48.726;8.892;2024-03-17T13:46:57;97105.88;;;28.50;25.99
31595;BME280;18200;48.726;8.892;2024-03-17T13:50:58;97109.34;;;27.91;25.32
31595;BME280;18200;48.726;8.892;2024-03-17T13:54:59;97104.72;;;27.88;25.54
31595;BME280;18200;48.726;8.892;2024-03-17T13:58:59;97093.72;;;28.75;25.95
31595;BME280;18200;48.726;8.892;2024-03-17T14:03:00;97109.38;;;28.00;25.42
31595;BME280;18200;48.726;8.892;2024-03-17T14:07:00;97093.53;;;27.82;26.38
31595;BME280;18200;48.726;8.892;2024-03-17T14:11:01;97082.19;;;27.80;25.56
31595;BME280;18200;48.726;8.892;2024-03-17T14:15:03;97082.75;;;28.89;25.11
31595;BME280;18200;48.726;8.892;2024-03-17T14:19:05;97086.00;;;26.88;26.94
31595;BME280;18200;48.726;8.892;2024-03-17T14:23:06;97081.22;;;26.80;27.87
31595;BME280;18200;48.726;8.892;2024-03-17T14:27:07;97075.75;;;26.28;28.73
31595;BME280;18200;48.726;8.892;2024-03-17T14:31:08;97081.72;;;27.91;26.42
31595;BME280;18200;48.726;8.892;2024-03-17T14:35:16;97085.72;;;25.69;30.28
31595;BME280;18200;48.726;8.892;2024-03-17T14:39:17;97069.19;;;25.69;30.66
31595;BME280;18200;48.726;8.892;2024-03-17T14:43:17;97065.50;;;26.06;29.49
31595;BME280;18200;48.726;8.892;2024-03-17T14:47:18;97063.22;;;25.49;30.48
31595;BME280;18200;48.726;8.892;2024-03-17T14:51:19;97070.06;;;25.66;30.49
31595;BME280;18200;48.726;8.892;2024-03-17T14:55:21;97059.56;;;25.52;30.60
31595;BME280;18200;48.726;8.892;2024-03-17T14:59:21;97067.78;;;25.18;31.04
31595;BME280;18200;48.726;8.892;2024-03-17T15:03:22;97070.50;;;25.30;30.49
31595;BME280;18200;48.726;8.892;2024-03-17T15:07:22;97058.75;;;26.07;30.19
31595;BME280;18200;48.726;8.892;2024-03-17T15:11:23;97049.66;;;25.55;29.91
31595;BME280;18200;48.726;8.892;2024-03-17T15:15:24;97049.66;;;25.08;30.41
31595;BME280;18200;48.726;8.892;2024-03-17T15:19:24;97053.44;;;25.48;30.10
31595;BME280;18200;48.726;8.892;2024-03-17T15:23:25;97060.03;;;25.38;31.13
31595;BME280;18200;48.726;8.892;2024-03-17T15:27:31;97052.13;;;24.68;32.42
31595;BME280;18200;48.726;8.892;2024-03-17T15:31:32;97047.47;;;24.15;33.33
31595;BME280;18200;48.726;8.892;2024-03-17T15:35:34;97046.41;;;24.75;32.78
31595;BME280;18200;48.726;8.892;2024-03-17T15:39:34;97043.66;;;24.88;31.99
31595;BME280;18200;48.726;8.892;2024-03-17T15:43:35;97051.50;;;23.69;33.96
31595;BME280;18200;48.726;8.892;2024-03-17T15:47:38;97046.69;;;24.14;33.46
31595;BME280;18200;48.726;8.892;2024-03-17T15:51:38;97044.09;;;24.23;32.98
31595;BME280;18200;48.726;8.892;2024-03-17T15:55:38;97050.44;;;24.71;32.39
31595;BME280;18200;48.726;8.892;2024-03-17T15:59:39;97043.75;;;24.59;32.45
31595;BME280;18200;48.726;8.892;2024-03-17T16:03:43;97037.84;;;23.94;33.98
31595;BME280;18200;48.726;8.892;2024-03-17T16:07:44;97039.78;;;24.60;32.72
31595;BME280;18200;48.726;8.892;2024-03-17T16:11:45;97039.38;;;24.74;32.34
31595;BME280;18200;48.726;8.892;2024-03-17T16:15:45;97034.22;;;25.23;31.48
31595;BME280;18200;48.726;8.892;2024-03-17T16:19:47;97031.28;;;25.52;31.56
31595;BME280;18200;48.726;8.892;2024-03-17T16:23:52;97034.00;;;25.17;32.11
31595;BME280;18200;48.726;8.892;2024-03-17T16:27:54;97045.16;;;25.14;32.56
31595;BME280;18200;48.726;8.892;2024-03-17T16:31:55;97028.59;;;24.54;32.95
31595;BME280;18200;48.726;8.892;2024-03-17T16:35:55;97030.16;;;25.27;31.70
31595;BME280;18200;48.726;8.892;2024-03-17T16:39:56;97030.56;;;24.54;33.26
31595;BME280;18200;48.726;8.892;2024-03-17T16:44:20;97030.81;;;24.85;32.68
31595;BME280;18200;48.726;8.892;2024-03-17T16:48:23;97024.94;;;25.08;32.11
31595;BME280;18200;48.726;8.892;2024-03-17T16:52:24;97024.75;;;24.39;33.42
31595;BME280;18200;48.726;8.892;2024-03-17T16:56:26;97025.59;;;24.11;33.55
31595;BME280;18200;48.726;8.892;2024-03-17T17:00:26;97021.44;;;24.95;32.44
31595;BME280;18200;48.726;8.892;2024-03-17T17:04:27;97020.41;;;25.48;31.84
31595;BME280;18200;48.726;8.892;2024-03-17T17:08:28;97019.25;;;26.01;30.97
31595;BME280;18200;48.726;8.892;2024-03-17T17:12:29;97014.91;;;26.13;31.16
31595;BME280;18200;48.726;8.892;2024-03-17T17:16:29;97013.13;;;25.97;31.17
31595;BME280;18200;48.726;8.892;2024-03-17T17:20:30;97013.50;;;25.87;31.63
31595;BME280;18200;48.726;8.892;2024-03-17T17:24:33;97015.25;;;26.02;31.25
31595;BME280;18200;48.726;8.892;2024-03-17T17:28:34;97014.53;;;25.80;31.77
31595;BME280;18200;48.726;8.892;2024-03-17T17:32:35;97010.31;;;25.67;32.03
31595;BME280;18200;48.726;8.892;2024-03-17T17:36:35;97009.28;;;25.73;32.11
31595;BME280;18200;48.726;8.892;2024-03-17T17:40:39;97014.94;;;25.35;32.71
31595;BME280;18200;48.726;8.892;2024-03-17T17:44:39;97023.88;;;24.67;34.11
31595;BME280;18200;48.726;8.892;2024-03-17T17:48:40;97006.16;;;25.28;33.74
31595;BME280;18200;48.726;8.892;2024-03-17T17:52:40;97004.50;;;25.30;33.40
31595;BME280;18200;48.726;8.892;2024-03-17T17:56:41;97009.06;;;25.12;33.25
31595;BME280;18200;48.726;8.892;2024-03-17T18:00:41;97007.94;;;25.22;33.06
31595;BME280;18200;48.726;8.892;2024-03-17T18:04:41;97010.09;;;24.93;33.95
31595;BME280;18200;48.726;8.892;2024-03-17T18:08:43;97009.31;;;25.05;33.89
31595;BME280;18200;48.726;8.892;2024-03-17T18:12:43;97008.28;;;25.11;33.76
31595;BME280;18200;48.726;8.892;2024-03-17T18:16:44;97005.13;;;25.13;33.65
31595;BME280;18200;48.726;8.892;2024-03-17T18:20:54;97022.72;;;25.03;33.61
31595;BME280;18200;48.726;8.892;2024-03-17T18:24:56;97020.47;;;24.51;34.73
31595;BME280;18200;48.726;8.892;2024-03-17T18:28:56;97006.50;;;24.96;34.08
31595;BME280;18200;48.726;8.892;2024-03-17T18:32:57;97005.84;;;24.54;34.67
31595;BME280;18200;48.726;8.892;2024-03-17T18:37:00;97008.38;;;24.48;34.89
31595;BME280;18200;48.726;8.892;2024-03-17T18:41:08;97016.03;;;24.66;34.62
31595;BME280;18200;48.726;8.892;2024-03-17T18:45:09;97011.88;;;23.41;36.26
31595;BME280;18200;48.726;8.892;2024-03-17T18:49:09;97025.47;;;23.61;36.25
31595;BME280;18200;48.726;8.892;2024-03-17T18:53:10;97011.16;;;23.95;35.54
31595;BME280;18200;48.726;8.892;2024-03-17T18:57:11;97012.94;;;24.01;35.95
31595;BME280;18200;48.726;8.892;2024-03-17T19:01:11;97020.09;;;24.11;35.51
31595;BME280;18200;48.726;8.892;2024-03-17T19:05:12;97023.53;;;23.74;35.18
31595;BME280;18200;48.726;8.892;2024-03-17T19:09:12;97029.06;;;23.58;36.69
31595;BME280;18200;48.726;8.892;2024-03-17T19:13:15;97021.97;;;23.73;36.30
31595;BME280;18200;48.726;8.892;2024-03-17T19:17:16;97024.44;;;23.96;36.24
31595;BME280;18200;48.726;8.892;2024-03-17T19:21:16;97020.16;;;23.82;35.97
31595;BME280;18200;48.726;8.892;2024-03-17T19:25:17;97009.38;;;23.75;36.20
31595;BME280;18200;48.726;8.892;2024-03-17T19:29:17;97022.78;;;22.48;37.88
31595;BME280;18200;48.726;8.892;2024-03-17T19:33:18;97008.59;;;22.85;37.29
31595;BME280;18200;48.726;8.892;2024-03-17T19:37:19;97014.34;;;22.75;37.29
31595;BME280;18200;48.726;8.892;2024-03-17T19:41:22;97013.34;;;22.85;37.81
31595;BME280;18200;48.726;8.892;2024-03-17T19:45:23;97008.78;;;23.10;37.12
31595;BME280;18200;48.726;8.892;2024-03-17T19:49:23;97010.19;;;23.15;36.65
31595;BME280;18200;48.726;8.892;2024-03-17T19:53:24;97014.16;;;23.14;36.73
31595;BME280;18200;48.726;8.892;2024-03-17T19:57:24;97017.06;;;23.23;36.18
31595;BME280;18200;48.726;8.892;2024-03-17T20:01:25;97014.22;;;23.27;36.22
31595;BME280;18200;48.726;8.892;2024-03-17T20:05:25;97006.97;;;22.88;36.88
31595;BME280;18200;48.726;8.892;2024-03-17T20:09:25;97002.94;;;22.44;37.68
31595;BME280;18200;48.726;8.892;2024-03-17T20:13:27;97007.72;;;22.40;37.82
31595;BME280;18200;48.726;8.892;2024-03-17T20:17:27;97003.66;;;21.34;39.74
31595;BME280;18200;48.726;8.892;2024-03-17T20:21:28;96998.22;;;21.93;38.62
31595;BME280;18200;48.726;8.892;2024-03-17T20:25:28;96993.50;;;22.29;38.02
31595;BME280;18200;48.726;8.892;2024-03-17T20:29:29;96992.84;;;22.57;37.36
31595;BME280;18200;48.726;8.892;2024-03-17T20:33:30;96985.44;;;22.74;37.31
31595;BME280;18200;48.726;8.892;2024-03-17T20:37:30;96978.41;;;22.73;37.20
31595;BME280;18200;48.726;8.892;2024-03-17T20:41:31;96979.28;;;22.34;37.22
31595;BME280;18200;48.726;8.892;2024-03-17T20:45:32;96990.91;;;21.08;39.62
31595;BME280;18200;48.726;8.892;2024-03-17T20:49:32;96975.66;;;21.89;38.76
31595;BME280;18200;48.726;8.892;2024-03-17T20:53:35;96973.06;;;22.33;38.07
31595;BME280;18200;48.726;8.892;2024-03-17T20:57:37;96976.25;;;22.64;37.48
31595;BME280;18200;48.726;8.892;2024-03-17T21:01:38;96969.75;;;22.42;37.71
31595;BME280;18200;48.726;8.892;2024-03-17T21:05:38;96966.53;;;21.76;38.41
31595;BME280;18200;48.726;8.892;2024-03-17T21:09:39;96967.88;;;21.48;39.15
31595;BME280;18200;48.726;8.892;2024-03-17T21:13:39;96959.09;;;21.76;39.00
31595;BME280;18200;48.726;8.892;2024-03-17T21:17:41;96956.72;;;22.14;38.56
31595;BME280;18200;48.726;8.892;2024-03-17T21:21:41;96958.94;;;22.35;38.13
31595;BME280;18200;48.726;8.892;2024-03-17T21:25:42;96958.53;;;22.53;37.74
31595;BME280;18200;48.726;8.892;2024-03-17T21:29:42;96950.03;;;22.47;37.61
31595;BME280;18200;48.726;8.892;2024-03-17T21:33:43;96949.97;;;22.18;38.06
31595;BME280;18200;48.726;8.892;2024-03-17T21:37:43;96941.69;;;21.67;38.92
31595;BME280;18200;48.726;8.892;2024-03-17T21:41:43;96931.91;;;22.37;38.24
31595;BME280;18200;48.726;8.892;2024-03-17T21:45:44;96935.69;;;21.55;38.82
31595;BME280;18200;48.726;8.892;2024-03-17T21:49:44;96920.00;;;21.20;40.52
31595;BME280;18200;48.726;8.892;2024-03-17T21:53:51;96928.38;;;21.69;39.38
31595;BME280;18200;48.726;8.892;2024-03-17T21:57:52;96921.44;;;21.84;39.14